createdAt,value
2019-02-11T00:00:04.653Z,100096.77
2019-02-11T00:02:33.512Z,100105.94
2019-02-11T00:05:02.245Z,100112.11
2019-02-11T00:07:30.995Z,100118.86
2019-02-11T00:09:59.837Z,100123.41
2019-02-11T00:12:28.573Z,100141.17
2019-02-11T00:14:57.214Z,100136.63
2019-02-11T00:17:26.020Z,100143.85
2019-02-11T00:19:54.778Z,100142.81
2019-02-11T00:22:23.479Z,100153.23
2019-02-11T00:24:52.111Z,100162.14
2019-02-11T00:27:20.929Z,100168.33
2019-02-11T00:29:49.672Z,100171.58
2019-02-11T00:32:18.353Z,100183.69
2019-02-11T00:34:47.085Z,100181.35
2019-02-11T00:37:15.713Z,100187.76
2019-02-11T00:39:44.511Z,100196.05
2019-02-11T00:42:13.181Z,100199.60
2019-02-11T00:44:41.907Z,100212.76
2019-02-11T00:47:10.863Z,100211.15
2019-02-11T00:49:39.602Z,100227.50
2019-02-11T00:52:08.602Z,100224.83
2019-02-11T00:54:37.337Z,100233.47
2019-02-11T00:57:05.960Z,100237.97
2019-02-11T00:59:34.652Z,100252.11
2019-02-11T01:02:03.406Z,100248.04
2019-02-11T01:04:32.182Z,100261.45
2019-02-11T01:07:01.675Z,100271.36
2019-02-11T01:09:30.345Z,100268.16
2019-02-11T01:11:59.060Z,100273.81
2019-02-11T01:14:27.677Z,100285.06
2019-02-11T01:16:56.351Z,100296.91
2019-02-11T01:19:25.097Z,100294.75
2019-02-11T01:21:53.917Z,100307.55
2019-02-11T01:24:22.673Z,100305.89
2019-02-11T01:26:51.317Z,100309.61
2019-02-11T01:29:20.160Z,100315.09
2019-02-11T01:31:48.830Z,100316.13
2019-02-11T01:34:17.542Z,100328.95
2019-02-11T01:36:46.273Z,100319.00
2019-02-11T01:39:15.138Z,100339.33
2019-02-11T01:41:43.875Z,100336.89
2019-02-11T01:44:12.451Z,100348.34
2019-02-11T01:46:41.327Z,100358.34
2019-02-11T01:49:10.050Z,100363.39
2019-02-11T01:51:38.768Z,100360.25
2019-02-11T01:54:07.583Z,100372.83
2019-02-11T01:56:38.188Z,100380.36
2019-02-11T01:59:07.051Z,100387.88
2019-02-11T02:01:35.914Z,100391.66
2019-02-11T02:04:05.003Z,100387.88
2019-02-11T02:06:33.650Z,100381.28
2019-02-11T02:09:02.390Z,100400.50
2019-02-11T02:11:31.154Z,100404.73
2019-02-11T02:13:59.896Z,100414.30
2019-02-11T02:16:28.725Z,100413.42
2019-02-11T02:18:57.634Z,100420.95
2019-02-11T02:21:26.378Z,100421.47
2019-02-11T02:23:55.019Z,100420.58
2019-02-11T02:26:23.773Z,100426.86
2019-02-11T02:28:52.488Z,100432.67
2019-02-11T02:31:21.300Z,100434.16
2019-02-11T02:33:49.933Z,100441.83
2019-02-11T02:36:18.675Z,100449.29
2019-02-11T02:38:47.450Z,100448.41
2019-02-11T02:41:16.170Z,100445.30
2019-02-11T02:43:54.883Z,100462.70
2019-02-11T02:46:16.331Z,100453.16
2019-02-11T02:48:45.026Z,100455.06
2019-02-11T02:51:13.738Z,100461.66
2019-02-11T02:53:42.477Z,100370.95
2019-02-11T02:56:11.281Z,100473.27
2019-02-11T02:58:40.052Z,100483.61
2019-02-11T03:01:08.794Z,100484.16
2019-02-11T03:03:37.746Z,100484.30
2019-02-11T03:06:06.484Z,100492.27
2019-02-11T03:08:35.329Z,100496.94
2019-02-11T03:11:05.013Z,100501.19
2019-02-11T03:13:33.787Z,100505.03
2019-02-11T03:16:02.431Z,100509.22
2019-02-11T03:18:31.075Z,100514.27
2019-02-11T03:20:59.729Z,100525.34
2019-02-11T03:23:28.389Z,100524.96
2019-02-11T03:25:57.092Z,100527.95
2019-02-11T03:28:25.773Z,100524.81
2019-02-11T03:30:54.567Z,100532.91
2019-02-11T03:33:23.345Z,100538.26
2019-02-11T03:35:52.323Z,100546.49
2019-02-11T03:38:20.982Z,100542.48
2019-02-11T03:40:49.632Z,100555.78
2019-02-11T03:43:18.465Z,100562.39
2019-02-11T03:45:47.270Z,100564.17
2019-02-11T03:48:15.949Z,100564.38
2019-02-11T03:50:46.535Z,100577.98
2019-02-11T03:53:15.228Z,100579.77
2019-02-11T03:55:43.916Z,100587.99
2019-02-11T03:58:12.845Z,100593.63
2019-02-11T04:00:41.409Z,100595.98
2019-02-11T04:03:10.171Z,100602.28
2019-02-11T04:05:38.929Z,100612.70
2019-02-11T04:08:07.724Z,100614.86
2019-02-11T04:10:36.522Z,100618.20
2019-02-11T04:13:05.411Z,100624.73
2019-02-11T04:15:34.174Z,100617.30
2019-02-11T04:18:02.881Z,100641.13
2019-02-11T04:20:31.500Z,100644.41
2019-02-11T04:23:00.344Z,100651.95
2019-02-11T04:25:29.052Z,100647.20
2019-02-11T04:27:57.793Z,100655.53
2019-02-11T04:30:26.496Z,100650.09
2019-02-11T04:32:55.159Z,100667.09
2019-02-11T04:35:23.898Z,100671.13
2019-02-11T04:37:52.553Z,100677.22
2019-02-11T04:40:21.272Z,100685.23
2019-02-11T04:42:50.070Z,100693.55
2019-02-11T04:45:19.009Z,100697.78
2019-02-11T04:47:47.754Z,100698.32
2019-02-11T04:50:16.463Z,100701.41
2019-02-11T04:52:45.219Z,100700.19
2019-02-11T04:55:14.084Z,100707.78
2019-02-11T04:57:42.725Z,100715.45
2019-02-11T05:00:13.817Z,100710.52
2019-02-11T05:02:42.650Z,100712.64
2019-02-11T05:05:11.905Z,100725.31
2019-02-11T05:07:40.534Z,100719.80
2019-02-11T05:10:11.835Z,100721.92
2019-02-11T05:12:40.575Z,100725.25
2019-02-11T05:15:11.725Z,100734.38
2019-02-11T05:17:42.063Z,100738.71
2019-02-11T05:20:12.930Z,100737.28
2019-02-11T05:22:41.586Z,100742.95
2019-02-11T05:25:10.295Z,100746.40
2019-02-11T05:27:39.003Z,100740.95
2019-02-11T05:30:10.866Z,100744.52
2019-02-11T05:32:39.780Z,100741.53
2019-02-11T05:35:08.818Z,100748.30
2019-02-11T05:37:48.398Z,100750.14
2019-02-11T05:40:24.610Z,100757.62
2019-02-11T05:42:57.465Z,100750.32
2019-02-11T05:45:26.723Z,100760.80
2019-02-11T05:47:55.379Z,100764.47
2019-02-11T05:50:23.953Z,100771.88
2019-02-11T05:52:52.614Z,100770.42
2019-02-11T05:55:21.179Z,100765.98
2019-02-11T05:57:49.872Z,100776.69
2019-02-11T06:00:19.314Z,100779.13
2019-02-11T06:02:48.010Z,100790.13
2019-02-11T06:05:16.756Z,100805.09
2019-02-11T06:07:45.373Z,100817.22
2019-02-11T06:10:14.078Z,100821.95
2019-02-11T06:12:42.645Z,100832.66
2019-02-11T06:15:11.338Z,100839.52
2019-02-11T06:17:39.952Z,100854.15
2019-02-11T06:20:11.107Z,100855.80
2019-02-11T06:22:39.747Z,100864.03
2019-02-11T06:25:09.915Z,100876.47
2019-02-11T06:27:38.469Z,100875.73
2019-02-11T06:30:10.289Z,100879.64
2019-02-11T06:32:38.865Z,100894.45
2019-02-11T06:35:09.152Z,100896.50
2019-02-11T06:37:37.817Z,100901.84
2019-02-11T06:40:09.105Z,100903.69
2019-02-11T06:42:37.891Z,100903.27
2019-02-11T06:45:13.314Z,100908.61
2019-02-11T06:47:41.726Z,100915.31
2019-02-11T06:50:13.295Z,100924.94
2019-02-11T06:52:41.902Z,100925.34
2019-02-11T06:55:12.486Z,100936.34
2019-02-11T06:57:41.200Z,100938.36
2019-02-11T07:00:12.843Z,100941.05
2019-02-11T07:02:41.473Z,100947.72
2019-02-11T07:05:10.235Z,100949.03
2019-02-11T07:07:38.987Z,100963.25
2019-02-11T07:10:12.017Z,100976.22
2019-02-11T07:12:40.686Z,100977.23
2019-02-11T07:15:21.724Z,100989.61
2019-02-11T07:17:44.218Z,100995.39
2019-02-11T07:20:12.907Z,100896.65
2019-02-11T07:22:41.707Z,101003.86
2019-02-11T07:25:10.437Z,101010.04
2019-02-11T07:27:39.056Z,101024.86
2019-02-11T07:30:13.671Z,101029.91
2019-02-11T07:32:42.218Z,101043.39
2019-02-11T07:35:10.899Z,101029.39
2019-02-11T07:37:39.499Z,101040.63
2019-02-11T07:40:10.575Z,101051.73
2019-02-11T07:42:43.783Z,101057.27
2019-02-11T07:45:14.071Z,101051.89
2019-02-11T07:47:42.760Z,101060.42
2019-02-11T07:50:11.375Z,101064.02
2019-02-11T07:52:40.048Z,101065.05
2019-02-11T07:55:08.774Z,101070.92
2019-02-11T07:57:37.509Z,101077.00
2019-02-11T08:00:08.836Z,101091.64
2019-02-11T08:02:37.542Z,101096.90
2019-02-11T08:05:08.422Z,101100.25
2019-02-11T08:07:37.157Z,101112.34
2019-02-11T08:10:07.988Z,101112.34
2019-02-11T08:12:36.666Z,101126.81
2019-02-11T08:15:09.795Z,101192.66
2019-02-11T08:17:38.476Z,101141.53
2019-02-11T08:20:09.881Z,101132.53
2019-02-11T08:22:39.446Z,101160.36
2019-02-11T08:25:08.199Z,101153.57
2019-02-11T08:27:36.907Z,101159.48
2019-02-11T08:30:10.967Z,101169.44
2019-02-11T08:32:39.651Z,101168.41
2019-02-11T08:35:08.719Z,101165.22
2019-02-11T08:37:37.447Z,101168.68
2019-02-11T08:40:08.528Z,101170.45
2019-02-11T08:42:37.175Z,101184.63
2019-02-11T08:45:07.988Z,101182.20
2019-02-11T08:47:36.695Z,101184.20
2019-02-11T08:50:07.343Z,101193.84
2019-02-11T08:52:36.109Z,101189.28
2019-02-11T08:55:08.093Z,101206.20
2019-02-11T08:57:36.765Z,101175.87
2019-02-11T09:00:08.402Z,101219.45
2019-02-11T09:02:37.335Z,101239.45
2019-02-11T09:05:08.394Z,101234.61
2019-02-11T09:07:37.103Z,101239.38
2019-02-11T09:10:11.094Z,101248.78
2019-02-11T09:12:39.827Z,101246.06
2019-02-11T09:15:13.301Z,101258.78
2019-02-11T09:17:41.957Z,101260.52
2019-02-11T09:20:13.541Z,101263.23
2019-02-11T09:22:42.367Z,101276.00
2019-02-11T09:25:11.999Z,101283.95
2019-02-11T09:27:40.684Z,101288.95
2019-02-11T09:30:14.984Z,101290.52
2019-02-11T09:32:43.574Z,101299.88
2019-02-11T09:35:12.375Z,101319.05
2019-02-11T09:37:41.106Z,101329.57
2019-02-11T09:40:15.672Z,101325.86
2019-02-11T09:42:44.367Z,101326.87
2019-02-11T09:45:18.526Z,101336.03
2019-02-11T09:47:47.187Z,101332.14
2019-02-11T09:50:21.608Z,101341.63
2019-02-11T09:52:50.794Z,101338.13
2019-02-11T09:55:25.835Z,101343.61
2019-02-11T09:57:54.667Z,101352.55
2019-02-11T10:00:23.390Z,101357.58
2019-02-11T10:02:52.004Z,101360.84
2019-02-11T10:05:20.682Z,101372.77
2019-02-11T10:07:49.332Z,101368.69
2019-02-11T10:10:17.884Z,101371.09
2019-02-11T10:12:46.600Z,101370.58
2019-02-11T10:15:16.521Z,101375.82
2019-02-11T10:17:45.232Z,101391.94
2019-02-11T10:20:15.818Z,101419.84
2019-02-11T10:22:44.533Z,101440.06
2019-02-11T10:25:30.224Z,101440.77
2019-02-11T10:28:01.822Z,101446.80
2019-02-11T10:30:30.504Z,101452.92
2019-02-11T10:32:59.214Z,101453.28
2019-02-11T10:35:27.860Z,101460.62
2019-02-11T10:37:56.547Z,101459.03
2019-02-11T10:40:25.249Z,101467.17
2019-02-11T10:42:54.065Z,101471.50
2019-02-11T10:45:22.684Z,101481.30
2019-02-11T10:47:51.382Z,101485.14
2019-02-11T10:50:20.127Z,101487.84
2019-02-11T10:52:48.753Z,101488.77
2019-02-11T10:55:21.357Z,101496.51
2019-02-11T10:57:49.975Z,101489.67
2019-02-11T11:00:21.138Z,101491.55
2019-02-11T11:02:49.860Z,101500.33
2019-02-11T11:05:18.628Z,101505.63
2019-02-11T11:07:48.601Z,101507.17
2019-02-11T11:10:26.406Z,101510.20
2019-02-11T11:12:55.112Z,101525.63
2019-02-11T11:15:24.280Z,101527.02
2019-02-11T11:17:52.961Z,101531.40
2019-02-11T11:20:21.680Z,101533.18
2019-02-11T11:22:50.319Z,101545.51
2019-02-11T11:25:19.088Z,101549.88
2019-02-11T11:27:47.809Z,101576.58
2019-02-11T11:30:19.325Z,101578.69
2019-02-11T11:32:48.530Z,101587.75
2019-02-11T11:35:20.333Z,101605.58
2019-02-11T11:37:48.996Z,101628.67
2019-02-11T11:40:22.425Z,101621.21
2019-02-11T11:42:51.165Z,101629.96
2019-02-11T11:45:20.505Z,101629.10
2019-02-11T11:47:49.209Z,101638.06
2019-02-11T11:50:18.344Z,101641.55
2019-02-11T11:52:47.039Z,101652.80
2019-02-11T11:55:24.538Z,101647.81
2019-02-11T11:57:53.369Z,101648.52
2019-02-11T12:00:27.694Z,101657.16
2019-02-11T12:03:02.875Z,101665.92
2019-02-11T12:05:27.009Z,101667.39
2019-02-11T12:07:55.779Z,101671.38
2019-02-11T12:10:24.440Z,101683.70
2019-02-11T12:12:53.208Z,101693.97
2019-02-11T12:15:24.676Z,101690.75
2019-02-11T12:17:53.484Z,101694.98
2019-02-11T12:20:22.212Z,101696.49
2019-02-11T12:22:50.893Z,101717.19
2019-02-11T12:25:19.745Z,101757.52
2019-02-11T12:27:48.441Z,101733.50
2019-02-11T12:30:25.841Z,101741.52
2019-02-11T12:32:56.055Z,101748.13
2019-02-11T12:35:25.019Z,101741.44
2019-02-11T12:37:53.694Z,101750.57
2019-02-11T12:40:22.470Z,101743.38
2019-02-11T12:42:53.142Z,101745.10
2019-02-11T12:45:26.015Z,101740.69
2019-02-11T12:47:54.874Z,101746.34
2019-02-11T12:50:23.543Z,101747.80
2019-02-11T12:52:52.156Z,101760.50
2019-02-11T12:55:20.820Z,101771.17
2019-02-11T12:57:49.532Z,101775.22
2019-02-11T13:00:21.081Z,101780.22
2019-02-11T13:02:49.870Z,101780.38
2019-02-11T13:05:23.185Z,101784.06
2019-02-11T13:07:49.489Z,101779.91
2019-02-11T13:10:20.892Z,101794.33
2019-02-11T13:12:49.655Z,101798.95
2019-02-11T13:15:58.992Z,101804.41
2019-02-11T13:17:50.647Z,101805.48
2019-02-11T13:20:20.202Z,101801.98
2019-02-11T13:22:50.041Z,101804.61
2019-02-11T13:25:20.028Z,101809.02
2019-02-11T13:27:48.911Z,101821.33
2019-02-11T13:30:20.597Z,101824.05
2019-02-11T13:32:49.385Z,101829.13
2019-02-11T13:35:18.016Z,101838.83
2019-02-11T13:37:46.826Z,101837.31
2019-02-11T13:40:15.626Z,101837.31
2019-02-11T13:42:44.345Z,101846.45
2019-02-11T13:45:15.395Z,101845.62
2019-02-11T13:47:53.733Z,101849.84
2019-02-11T13:50:20.231Z,101863.84
2019-02-11T13:52:49.562Z,101858.27
2019-02-11T13:55:18.419Z,101875.05
2019-02-11T13:57:51.588Z,101883.95
2019-02-11T14:00:27.880Z,101884.66
2019-02-11T14:02:58.077Z,101912.92
2019-02-11T14:05:28.554Z,101909.50
2019-02-11T14:08:00.099Z,101909.60
2019-02-11T14:10:28.926Z,101913.62
2019-02-11T14:12:57.782Z,101913.62
2019-02-11T14:15:26.583Z,101914.38
2019-02-11T14:18:10.435Z,101938.19
2019-02-11T14:20:27.312Z,101953.68
2019-02-11T14:22:55.981Z,101972.39
2019-02-11T14:25:41.338Z,101962.20
2019-02-11T14:27:55.179Z,101971.42
2019-02-11T14:30:23.844Z,101968.02
2019-02-11T14:32:52.644Z,101971.61
2019-02-11T14:35:22.311Z,101969.83
2019-02-11T14:37:50.947Z,101974.11
2019-02-11T14:40:19.683Z,101977.74
2019-02-11T14:42:48.410Z,101990.27
2019-02-11T14:45:21.191Z,101979.40
2019-02-11T14:47:49.987Z,101985.70
2019-02-11T14:50:18.670Z,101988.36
2019-02-11T14:52:47.385Z,101999.36
2019-02-11T14:55:16.145Z,102005.97
2019-02-11T14:57:44.820Z,102013.41
2019-02-11T15:00:21.723Z,102015.66
2019-02-11T15:02:50.468Z,102025.85
2019-02-11T15:05:19.445Z,102029.89
2019-02-11T15:07:48.955Z,102034.32
2019-02-11T15:10:19.624Z,102036.84
2019-02-11T15:12:48.270Z,102044.69
2019-02-11T15:15:16.911Z,102042.88
2019-02-11T15:17:47.144Z,102055.83
2019-02-11T15:20:17.654Z,102057.23
2019-02-11T15:22:46.269Z,102064.25
2019-02-11T15:25:17.624Z,102084.73
2019-02-11T15:27:46.449Z,102086.55
2019-02-11T15:30:17.781Z,102108.09
2019-02-11T15:32:46.425Z,102111.10
2019-02-11T15:35:15.853Z,102119.98
2019-02-11T15:37:44.617Z,102126.56
2019-02-11T15:40:16.208Z,102131.81
2019-02-11T15:42:44.901Z,102140.36
2019-02-11T15:45:15.733Z,102152.50
2019-02-11T15:47:44.423Z,102164.35
2019-02-11T15:50:15.840Z,102162.41
2019-02-11T15:52:44.466Z,102165.81
2019-02-11T15:55:20.919Z,102186.36
2019-02-11T15:57:49.695Z,102192.56
2019-02-11T16:00:24.931Z,102193.58
2019-02-11T16:02:53.699Z,102197.78
2019-02-11T16:05:22.397Z,102211.22
2019-02-11T16:07:52.467Z,102217.86
2019-02-11T16:10:27.287Z,102228.81
2019-02-11T16:12:55.899Z,102238.64
2019-02-11T16:15:24.661Z,102241.00
2019-02-11T16:17:53.435Z,102241.69
2019-02-11T16:20:22.129Z,102243.66
2019-02-11T16:22:50.885Z,102249.19
2019-02-11T16:25:19.520Z,102254.94
2019-02-11T16:27:48.439Z,102262.27
2019-02-11T16:30:20.672Z,102279.22
2019-02-11T16:32:50.157Z,102283.34
2019-02-11T16:35:19.392Z,102283.58
2019-02-11T16:37:48.122Z,102290.16
2019-02-11T16:40:25.856Z,102293.52
2019-02-11T16:42:54.620Z,102302.13
2019-02-11T16:45:24.292Z,102300.13
2019-02-11T16:47:53.589Z,102316.05
2019-02-11T16:50:22.330Z,102328.45
2019-02-11T16:52:50.999Z,102328.95
2019-02-11T16:55:19.727Z,102334.13
2019-02-11T16:57:48.460Z,102339.44
2019-02-11T17:00:19.353Z,102347.55
2019-02-11T17:02:49.010Z,102352.30
2019-02-11T17:05:17.721Z,102356.18
2019-02-11T17:07:46.432Z,102366.84
2019-02-11T17:10:16.130Z,102355.50
2019-02-11T17:12:44.792Z,102356.53
2019-02-11T17:15:18.491Z,102359.57
2019-02-11T17:17:47.253Z,102361.82
2019-02-11T17:20:16.804Z,102363.88
2019-02-11T17:22:45.779Z,102358.75
2019-02-11T17:25:15.315Z,102365.97
2019-02-11T17:27:44.074Z,102372.05
2019-02-11T17:30:18.329Z,102380.34
2019-02-11T17:32:48.013Z,102380.34
2019-02-11T17:35:16.761Z,102378.58
2019-02-11T17:37:45.497Z,102386.13
2019-02-11T17:40:15.316Z,102393.37
2019-02-11T17:42:47.755Z,102394.56
2019-02-11T17:45:28.383Z,102393.25
2019-02-11T17:48:01.611Z,102397.27
2019-02-11T17:50:30.706Z,102396.77
2019-02-11T17:53:06.103Z,102399.80
2019-02-11T17:55:35.288Z,102409.51
2019-02-11T17:58:06.417Z,102420.39
2019-02-11T18:00:42.982Z,102422.08
2019-02-11T18:03:12.695Z,102425.09
2019-02-11T18:05:43.328Z,102422.08
2019-02-11T18:08:12.792Z,102417.91
2019-02-11T18:10:41.709Z,102424.93
2019-02-11T18:13:10.338Z,102427.58
2019-02-11T18:15:39.553Z,102443.48
2019-02-11T18:18:08.377Z,102451.32
2019-02-11T18:20:38.177Z,102457.64
2019-02-11T18:23:07.069Z,102474.84
2019-02-11T18:25:35.917Z,102474.66
2019-02-11T18:28:05.147Z,102469.95
2019-02-11T18:30:33.988Z,102379.27
2019-02-11T18:33:02.644Z,102474.27
2019-02-11T18:35:32.509Z,102493.33
2019-02-11T18:38:01.156Z,102497.15
2019-02-11T18:40:30.535Z,102497.34
2019-02-11T18:42:59.281Z,102493.28
2019-02-11T18:45:27.946Z,102488.61
2019-02-11T18:47:56.574Z,102494.13
2019-02-11T18:50:26.865Z,102483.26
2019-02-11T18:52:55.916Z,102471.85
2019-02-11T18:55:24.583Z,102484.59
2019-02-11T18:57:53.333Z,102483.91
2019-02-11T19:00:27.475Z,102481.76
2019-02-11T19:02:56.464Z,102479.44
2019-02-11T19:05:25.273Z,102495.05
2019-02-11T19:07:54.816Z,102519.83
2019-02-11T19:10:23.565Z,102522.66
2019-02-11T19:12:52.282Z,102521.63
2019-02-11T19:15:22.193Z,102537.02
2019-02-11T19:17:50.954Z,102546.39
2019-02-11T19:20:19.694Z,102550.06
2019-02-11T19:22:48.341Z,102558.75
2019-02-11T19:25:24.059Z,102544.33
2019-02-11T19:27:53.219Z,102532.61
2019-02-11T19:30:27.605Z,102537.12
2019-02-11T19:32:56.263Z,102531.13
2019-02-11T19:35:25.390Z,102524.77
2019-02-11T19:37:54.127Z,102533.34
2019-02-11T19:40:24.279Z,102542.90
2019-02-11T19:42:53.013Z,102546.27
2019-02-11T19:45:23.930Z,102552.77
2019-02-11T19:47:56.790Z,102557.12
2019-02-11T19:50:25.351Z,102555.64
2019-02-11T19:52:54.215Z,102558.66
2019-02-11T19:55:23.060Z,102565.50
2019-02-11T19:57:51.752Z,102569.67
2019-02-11T20:00:22.566Z,102570.70
2019-02-11T20:02:51.558Z,102575.53
2019-02-11T20:05:20.183Z,102531.89
2019-02-11T20:07:49.444Z,102576.37
2019-02-11T20:10:25.330Z,102581.39
2019-02-11T20:12:56.989Z,102587.59
2019-02-11T20:15:30.807Z,102595.11
2019-02-11T20:17:59.612Z,102601.14
2019-02-11T20:20:28.246Z,102600.48
2019-02-11T20:22:56.874Z,102616.22
2019-02-11T20:25:25.642Z,102617.05
2019-02-11T20:27:54.259Z,102621.72
2019-02-11T20:30:25.874Z,102623.06
2019-02-11T20:32:54.599Z,102629.27
2019-02-11T20:35:23.229Z,102644.48
2019-02-11T20:37:52.121Z,102641.81
2019-02-11T20:40:25.510Z,102645.98
2019-02-11T20:42:54.213Z,102638.80
2019-02-11T20:45:29.006Z,102642.47
2019-02-11T20:48:01.512Z,102638.47
2019-02-11T20:50:30.793Z,102581.59
2019-02-11T20:52:59.494Z,102636.28
2019-02-11T20:55:28.126Z,102650.16
2019-02-11T20:58:01.412Z,102666.75
2019-02-11T21:00:35.371Z,102663.20
2019-02-11T21:03:08.431Z,102664.37
2019-02-11T21:05:45.257Z,102671.41
2019-02-11T21:08:14.060Z,102662.19
2019-02-11T21:10:42.722Z,102667.73
2019-02-11T21:13:11.456Z,102663.86
2019-02-11T21:15:40.263Z,102670.23
2019-02-11T21:18:09.813Z,102673.73
2019-02-11T21:20:43.568Z,102667.21
2019-02-11T21:23:12.244Z,102674.43
2019-02-11T21:25:42.036Z,102641.96
2019-02-11T21:28:11.374Z,102670.25
2019-02-11T21:30:40.212Z,102678.94
2019-02-11T21:33:09.186Z,102678.94
2019-02-11T21:35:38.364Z,102686.32
2019-02-11T21:38:07.187Z,102686.48
2019-02-11T21:40:37.463Z,102688.50
2019-02-11T21:43:06.263Z,102696.84
2019-02-11T21:45:35.045Z,102719.59
2019-02-11T21:48:04.174Z,102710.73
2019-02-11T21:50:33.608Z,102712.91
2019-02-11T21:53:02.344Z,102725.78
2019-02-11T21:55:31.646Z,102739.02
2019-02-11T21:58:01.175Z,102743.02
2019-02-11T22:00:30.879Z,102746.88
2019-02-11T22:03:00.754Z,102751.08
2019-02-11T22:05:42.558Z,102752.40
2019-02-11T22:08:13.377Z,102747.69
2019-02-11T22:10:44.524Z,102736.98
2019-02-11T22:13:13.725Z,102736.64
2019-02-11T22:15:48.716Z,102737.98
2019-02-11T22:18:18.265Z,102740.80
2019-02-11T22:20:47.022Z,102743.17
2019-02-11T22:23:15.676Z,102754.86
2019-02-11T22:25:44.373Z,102762.72
2019-02-11T22:28:13.185Z,102775.41
2019-02-11T22:30:41.951Z,102791.27
2019-02-11T22:33:10.653Z,102789.59
2019-02-11T22:35:39.370Z,102785.89
2019-02-11T22:38:08.062Z,102763.80
2019-02-11T22:40:36.850Z,102757.09
2019-02-11T22:43:05.491Z,102756.57
2019-02-11T22:45:34.243Z,102752.83
2019-02-11T22:48:03.351Z,102755.44
2019-02-11T22:50:31.988Z,102747.36
2019-02-11T22:53:00.652Z,102747.50
2019-02-11T22:55:29.366Z,102760.65
2019-02-11T22:57:58.090Z,102763.14
2019-02-11T23:00:49.312Z,102763.14
2019-02-11T23:03:18.002Z,102757.48
2019-02-11T23:05:46.774Z,102754.81
2019-02-11T23:08:15.618Z,102758.50
2019-02-11T23:10:44.282Z,102756.85
2019-02-11T23:13:12.943Z,102754.91
2019-02-11T23:15:41.593Z,102764.94
2019-02-11T23:18:10.296Z,102767.30
2019-02-11T23:20:40.044Z,102770.42
2019-02-11T23:23:08.752Z,102770.70
2019-02-11T23:25:37.553Z,102772.39
2019-02-11T23:28:06.374Z,102771.55
2019-02-11T23:30:35.005Z,102771.41
2019-02-11T23:33:03.871Z,102771.41
2019-02-11T23:35:32.581Z,102780.48
2019-02-11T23:38:01.335Z,102786.50
2019-02-11T23:40:30.909Z,102793.05
2019-02-11T23:43:00.476Z,102798.56
2019-02-11T23:45:30.001Z,102798.11
2019-02-11T23:47:58.714Z,102800.14
2019-02-11T23:50:27.424Z,102803.31
2019-02-11T23:52:56.094Z,102810.84
2019-02-11T23:55:24.774Z,102815.17
2019-02-11T23:57:53.526Z,102817.70
